Terminal Aerodrome Forecast
Issued by NWS Melbourne, FL

Current Version | Previous Version | Text Only | Print | Product List | Glossary On
Versions: 1 2 3 4 5 6 7 8 9 10 11 12 13 14 15 16 17 18 19 20 21 22 23 24 25 26
494
FTUS42 KMLB 271122
TAFMCO
TAF
KMCO 271122Z 2712/2812 06004KT P6SM FEW035 SCT070
     FM271500 07010G16KT P6SM SCT030
     FM280200 03003KT P6SM FEW020=

USA.gov is the U.S. government's official web portal to all federal, state and local government web resources and services.